ADDS METAR Data INFO
IDs: Format: Raw Decoded Include TAF

Data at: 2115 UTC 19 Jul 2018

KACJ 192055Z AUTO 26006KT 10SM SCT031 SCT037 SCT043 28/21 A2992 RMK AO2
KACJ 192035Z AUTO 00000KT 10SM -RA SCT034 BKN044 BKN065 29/20 A2991 RMK AO2
KACJ 192015Z AUTO 00000KT 10SM -RA SCT040 BKN090 OVC110 29/20 A2992 RMK AO2
KACJ 191955Z AUTO 00000KT 10SM SCT070 SCT110 29/21 A2993 RMK AO2 LTG DSNT E AND S
KACJ 191935Z AUTO 00000KT 5SM HZ CLR 29/21 A2993 RMK AO2 LTG DSNT SE
KACJ 191915Z AUTO 13003KT 1 1/4SM HZ VV007 30/20 A2994 RMK AO2 LTG DSNT SE THRU W
KACJ 191855Z AUTO 11005KT 1SM HZ VV007 30/20 A2994 RMK AO2 LTG DSNT W
KACJ 191835Z AUTO 10004KT 1SM HZ BKN028 BKN046 30/20 A2994 RMK AO2 LTG DSNT S THRU W
KACJ 191815Z AUTO 12006KT 1 1/4SM HZ SCT032 32/21 A2994 RMK AO2
KACJ 191755Z AUTO 10004KT 7SM SCT032 32/20 A2995 RMK AO2 LTG DSNT SW
KACJ 191735Z AUTO 11007KT 4SM HZ SCT030 SCT036 31/20 A2996 RMK AO2 LTG DSNT S
KACJ 191715Z AUTO 12003KT 7SM BKN028 BKN036 30/20 A2997 RMK AO2 LTG DSNT W
KACJ 191655Z AUTO 10004KT 10SM SCT025 SCT040 31/20 A2997 RMK AO2
KACJ 191635Z AUTO 08003KT 5SM HZ SCT025 SCT032 BKN038 30/20 A2998 RMK AO2
KACJ 191615Z AUTO 10004KT 3SM HZ SCT023 OVC038 30/20 A2999 RMK AO2
KACJ 191555Z AUTO 07005KT 3SM HZ BKN021 OVC036 29/20 A2999 RMK AO2
KACJ 191535Z AUTO 09003KT 3SM HZ BKN019 BKN025 BKN035 29/20 A2999 RMK AO2
KACJ 191515Z AUTO 13006KT 7SM SCT017 28/21 A2999 RMK AO2
KACJ 191455Z AUTO 06003KT 5SM HZ SCT013 28/21 A2998 RMK AO2
KACJ 191435Z AUTO 10004KT 4SM HZ BKN011 28/21 A2998 RMK AO2
KACJ 191415Z AUTO 12004KT 4SM HZ SCT011 27/21 A2998 RMK AO2
KACJ 191355Z AUTO 05005KT 7SM SCT038 27/21 A2998 RMK AO2
KACJ 191335Z AUTO 05003KT 10SM SCT038 26/21 A2999 RMK AO2
KACJ 191315Z AUTO 00000KT 10SM SCT004 BKN038 25/21 A2998 RMK AO2
KACJ 191255Z AUTO 08003KT 4SM HZ SCT004 SCT038 BKN120 25/21 A2998 RMK AO2
KACJ 191235Z AUTO 00000KT 7SM BKN002 23/20 A2998 RMK AO2
KACJ 191215Z AUTO 05004KT 5SM HZ SCT002 23/20 A2998 RMK AO2 LTG DSNT SW
KACJ 191155Z AUTO 04003KT 7SM SCT002 SCT110 23/20 A2997 RMK AO2
KACJ 191135Z AUTO 00000KT 4SM BR BKN002 BKN110 22/20 A2997 RMK AO2
KACJ 191115Z AUTO 00000KT 4SM HZ BKN002 BKN100 22/20 A2997 RMK AO2
KACJ 191055Z AUTO 00000KT 3SM HZ SCT002 22/20 A2997 RMK AO2
KACJ 191035Z AUTO 06003KT 5SM HZ CLR 22/20 A2996 RMK AO2
KACJ 191015Z AUTO 00000KT 5SM HZ CLR 22/20 A2995 RMK AO2
KACJ 190955Z AUTO 00000KT 5SM HZ CLR 22/20 A2994 RMK AO2
KACJ 190935Z AUTO 00000KT 4SM HZ CLR 22/20 A2994 RMK AO2
KACJ 190915Z AUTO 10003KT 2 1/2SM HZ CLR 22/20 A2994 RMK AO2
KACJ 190855Z AUTO 00000KT 3SM HZ CLR 22/20 A2993 RMK AO2
KACJ 190835Z AUTO 00000KT 10SM CLR 23/20 A2993 RMK AO2
KACJ 190815Z AUTO 00000KT 10SM CLR 23/20 A2992 RMK AO2
KACJ 190755Z AUTO 00000KT 10SM CLR 23/20 A2992 RMK AO2
KACJ 190735Z AUTO 00000KT 7SM CLR 23/20 A2992 RMK AO2
KACJ 190715Z AUTO 00000KT 7SM CLR 23/20 A2993 RMK AO2
KACJ 190655Z AUTO 00000KT 7SM CLR 23/20 A2993 RMK AO2
KACJ 190635Z AUTO 00000KT 10SM CLR 23/20 A2994 RMK AO2
KACJ 190615Z AUTO 00000KT 10SM CLR 23/20 A2994 RMK AO2
KACJ 190555Z AUTO 00000KT 7SM CLR 23/20 A2995 RMK AO2
KACJ 190535Z AUTO 21004KT 7SM CLR 23/20 A2995 RMK AO2
KACJ 190515Z AUTO 00000KT 10SM CLR 23/20 A2993 RMK AO2
KACJ 190455Z AUTO 03003KT 10SM CLR 24/20 A2994 RMK AO2
KACJ 190435Z AUTO 00000KT 10SM CLR 24/20 A2994 RMK AO2 LTG DSNT NW
KACJ 190415Z AUTO 26004KT 10SM CLR 24/20 A2996 RMK AO2
KACJ 190355Z AUTO 16004KT 2 1/2SM DZ SCT065 SCT090 SCT110 23/20 A2996 RMK AO2 VIS 1 1/4V4
KACJ 190335Z AUTO 10006KT 1 1/4SM DZ BKN040 BKN055 OVC070 25/20 A2998 RMK AO2 LTG DSNT E AND SE
KACJ 190315Z AUTO 11009KT 2SM HZ OVC038 25/20 A2999 RMK AO2 LTG DSNT E
KACJ 190255Z AUTO 12005KT 4SM HZ OVC040 25/20 A2998 RMK AO2 LTG DSNT E AND SE
KACJ 190235Z AUTO 00000KT 10SM SCT042 25/20 A2997 RMK AO2 LTG DSNT NE AND E
KACJ 190215Z AUTO 00000KT 10SM TS CLR 25/20 A2995 RMK AO2 LTG DSNT E
KACJ 190155Z AUTO 00000KT 10SM CLR 25/19 A2995 RMK AO2 LTG DSNT NE AND E
KACJ 190135Z AUTO 00000KT 10SM CLR 25/18 A2995 RMK AO2 LTG DSNT NE AND E
KACJ 190115Z AUTO 00000KT 10SM SCT043 SCT060 SCT095 25/18 A2994 RMK AO2
KACJ 190055Z AUTO 36003KT 10SM -RA SCT090 SCT120 26/20 A2994 RMK AO2 LTG DSNT NE THRU SE
KACJ 190035Z AUTO 35007KT 10SM -VCTSRA SCT090 BKN120 27/20 A2993 RMK AO2 LTG DSNT NE AND NW
KACJ 190015Z AUTO 00000KT 10SM CLR 30/20 A2992 RMK AO2 LTG DSNT W THRU E
KACJ 182355Z AUTO 23003KT 10SM CLR 30/20 A2992 RMK AO2
KACJ 182335Z AUTO 23004KT 10SM SCT046 31/19 A2991 RMK AO2 LTG DSNT NE AND E
KACJ 182315Z AUTO 26004KT 10SM SCT046 32/17 A2991 RMK AO2 LTG DSNT NE
KACJ 182255Z AUTO 22004KT 10SM CLR 32/19 A2990 RMK AO2 LTG DSNT NE
KACJ 182235Z AUTO 21004KT 10SM CLR 32/18 A2991 RMK AO2
KACJ 182215Z AUTO 23005KT 10SM CLR 32/18 A2990 RMK AO2
KACJ 182155Z AUTO 20006KT 10SM CLR 32/20 A2991 RMK AO2 LTG DSNT N
KACJ 182135Z AUTO 19005KT 10SM SCT039 32/20 A2991 RMK AO2 LTG DSNT N
KACJ 182115Z AUTO 20005KT 10SM SCT049 SCT065 SCT080 32/20 A2991 RMK AO2
KACJ 182055Z AUTO 19003KT 10SM SCT046 BKN060 OVC100 31/20 A2991 RMK AO2
KACJ 182035Z AUTO 20004KT 10SM SCT046 BKN100 31/20 A2992 RMK AO2
KACJ 182015Z AUTO 19005KT 10SM BKN044 BKN055 32/20 A2992 RMK AO2
KACJ 181955Z AUTO 19006KT 10SM BKN044 BKN060 32/20 A2993 RMK AO2 LTG DSNT S
KACJ 181935Z AUTO 00000KT 10SM SCT044 BKN050 32/18 A2993 RMK AO2 LTG DSNT E
KACJ 181915Z AUTO 00000KT 10SM SCT042 32/17 A2995 RMK AO2
KACJ 181855Z AUTO 24004KT 10SM SCT041 32/18 A2995 RMK AO2
KACJ 181835Z AUTO 34004KT 10SM SCT041 31/18 A2996 RMK AO2
KACJ 181815Z AUTO 01003KT 10SM CLR 31/17 A2997 RMK AO2
KACJ 181755Z AUTO 28005KT 10SM CLR 32/18 A2997 RMK AO2
KACJ 181735Z AUTO 00000KT 10SM SCT034 SCT055 SCT090 31/19 A2998 RMK AO2
KACJ 181715Z AUTO 29004KT 10SM BKN036 BKN046 BKN060 31/19 A2998 RMK AO2
KACJ 181655Z AUTO 00000KT 10SM SCT034 SCT039 BKN044 31/18 A2999 RMK AO2
KACJ 181635Z AUTO 28004KT 10SM SCT029 BKN041 BKN050 31/19 A2999 RMK AO2
KACJ 181615Z AUTO 28004KT 10SM SCT029 BKN040 30/20 A3000 RMK AO2
KACJ 181555Z AUTO 25003KT 10SM SCT027 SCT038 30/20 A3000 RMK AO2
KACJ 181535Z AUTO 21004KT 10SM SCT025 30/21 A3001 RMK AO2
KACJ 181515Z AUTO 24004KT 10SM SCT023 29/21 A3001 RMK AO2
KACJ 181455Z AUTO 00000KT 10SM CLR 28/21 A3001 RMK AO2
KACJ 181435Z AUTO 28005KT 10SM CLR 28/21 A3001 RMK AO2
KACJ 181415Z AUTO 28004KT 10SM CLR 27/21 A3002 RMK AO2
KACJ 181355Z AUTO 00000KT 10SM CLR 27/21 A3002 RMK AO2
KACJ 181335Z AUTO 29004KT 10SM CLR 26/21 A3002 RMK AO2
KACJ 181315Z AUTO 27003KT 10SM SCT007 26/21 A3002 RMK AO2
KACJ 181255Z AUTO 27005KT 10SM SCT007 25/20 A3002 RMK AO2
KACJ 181235Z AUTO 28005KT 10SM CLR 25/20 A3001 RMK AO2
KACJ 181215Z AUTO 27004KT 10SM CLR 24/20 A3001 RMK AO2 LTG DSNT SW
KACJ 181155Z AUTO 24003KT 10SM CLR 23/20 A3001 RMK AO2
KACJ 181135Z AUTO 23003KT 10SM CLR 22/20 A3001 RMK AO2 LTG DSNT E
KACJ 181115Z AUTO 23003KT 7SM CLR 22/20 A3000 RMK AO2
KACJ 181055Z AUTO 00000KT 10SM CLR 22/20 A3000 RMK AO2
KACJ 181035Z AUTO 00000KT 10SM CLR 22/20 A2999 RMK AO2
KACJ 181015Z AUTO 25003KT 10SM CLR 22/20 A2999 RMK AO2
KACJ 180955Z AUTO 24003KT 10SM CLR 22/20 A2998 RMK AO2
KACJ 180935Z AUTO 24003KT 10SM CLR 22/20 A2999 RMK AO2